^^
Saratoga-Weather Station Historical Data
Daily Summary for April 21, 2021 Units:  Both    English   Metric
Daily Weekly Monthly Yearly Custom
  High: Low: Average:
Temperature: 65.7 °F /  18.7 °C 36.1 °F /  2.3 °C 48 °F /  8.9 °C
Dew Point: 45.5 °F /  7.5 °C 34.9 °F /  1.6 °C 39.4 °F /  4.1 °C
Humidity: 97% 37% 76%
Wind Speed: 8.1mph /  13km/h - 0.9mph /  1.4km/h
Wind Gust: 12mph /  19.3km/h - -
Wind- - SE
Pressure: 30 in /  1016.3 hPa 29.9 in /  1013.5 hPa -
Precipitation: 0 in /  0.0 mm    
Historical Graphs
 
 
Tabular Data for April 21, 2021
Time Temperature Dew Point Pressure Wind Wind Speed Wind Gust Humidity Rainfall Rate (Hourly) solar
00:01 41.5 °F /  5.3 °C 39.7 °F /  4.3 °C 30in /  1014.6hPa Calm     93% 0in /  0.0mm 0 W/m2
00:06 41.5 °F /  5.3 °C 39.7 °F /  4.3 °C 30in /  1014.6hPa Calm     93% 0in /  0.0mm 0 W/m2
00:11 41.5 °F /  5.3 °C 39.7 °F /  4.3 °C 30in /  1014.6hPa Calm     93% 0in /  0.0mm 0 W/m2
00:16 41.5 °F /  5.3 °C 39.7 °F /  4.3 °C 30in /  1014.6hPa Calm     93% 0in /  0.0mm 0 W/m2
00:21 41.4 °F /  5.2 °C 39.6 °F /  4.2 °C 30in /  1014.6hPa Calm     93% 0in /  0.0mm 0 W/m2
00:37 41.2 °F /  5.1 °C 39.4 °F /  4.1 °C 30in /  1014.6hPa Calm     93% 0in /  0.0mm 0 W/m2
00:42 41 °F /  5 °C 39.2 °F /  4 °C 30in /  1014.6hPa Calm     93% 0in /  0.0mm 0 W/m2
00:47 41 °F /  5 °C 39.4 °F /  4.1 °C 30in /  1014.6hPa Calm     94% 0in /  0.0mm 0 W/m2
00:52 41 °F /  5 °C 39.4 °F /  4.1 °C 30in /  1014.6hPa Calm   1mph /  1.6km/h 94% 0in /  0.0mm 0 W/m2
00:57 40.8 °F /  4.9 °C 39.2 °F /  4 °C 30in /  1014.6hPa Calm     94% 0in /  0.0mm 0 W/m2
01:02 40.8 °F /  4.9 °C 39 °F /  3.9 °C 30in /  1014.6hPa Calm     93% 0in /  0.0mm 0 W/m2
01:07 40.6 °F /  4.8 °C 38.8 °F /  3.8 °C 30in /  1014.6hPa Calm     93% 0in /  0.0mm 0 W/m2
01:12 40.5 °F /  4.7 °C 38.7 °F /  3.7 °C 30in /  1014.6hPa Calm     93% 0in /  0.0mm 0 W/m2
01:17 40.5 °F /  4.7 °C 38.8 °F /  3.8 °C 30in /  1014.6hPa Calm     94% 0in /  0.0mm 0 W/m2
01:22 40.6 °F /  4.8 °C 39 °F /  3.9 °C 30in /  1014.6hPa Calm     94% 0in /  0.0mm 0 W/m2
01:27 40.8 °F /  4.9 °C 39.2 °F /  4 °C 30in /  1014.6hPa Calm     94% 0in /  0.0mm 0 W/m2
01:32 40.6 °F /  4.8 °C 39 °F /  3.9 °C 30in /  1014.6hPa Calm     94% 0in /  0.0mm 0 W/m2
01:37 40.6 °F /  4.8 °C 39 °F /  3.9 °C 30in /  1014.6hPa Calm     94% 0in /  0.0mm 0 W/m2
01:42 40.5 °F /  4.7 °C 38.8 °F /  3.8 °C 30in /  1014.6hPa Calm     94% 0in /  0.0mm 0 W/m2
01:47 40.5 °F /  4.7 °C 38.8 °F /  3.8 °C 30in /  1014.6hPa Calm     94% 0in /  0.0mm 0 W/m2
01:52 40.3 °F /  4.6 °C 38.7 °F /  3.7 °C 30in /  1014.6hPa Calm     94% 0in /  0.0mm 0 W/m2
02:09 39.9 °F /  4.4 °C 38.3 °F /  3.5 °C 30in /  1014.6hPa Calm     94% 0in /  0.0mm 0 W/m2
02:14 39.9 °F /  4.4 °C 38.3 °F /  3.5 °C 30in /  1014.6hPa Calm     94% 0in /  0.0mm 0 W/m2
02:19 39.7 °F /  4.3 °C 38.1 °F /  3.4 °C 30in /  1014.6hPa Calm     94% 0in /  0.0mm 0 W/m2
02:24 39.7 °F /  4.3 °C 38.1 °F /  3.4 °C 30in /  1014.6hPa Calm     94% 0in /  0.0mm 0 W/m2
02:29 39.6 °F /  4.2 °C 37.9 °F /  3.3 °C 30in /  1014.6hPa Calm     94% 0in /  0.0mm 0 W/m2
02:49 39.7 °F /  4.3 °C 38.1 °F /  3.4 °C 30in /  1014.6hPa Calm     94% 0in /  0.0mm 0 W/m2
02:54 39.6 °F /  4.2 °C 37.9 °F /  3.3 °C 30in /  1014.6hPa Calm     94% 0in /  0.0mm 0 W/m2
02:59 39.6 °F /  4.2 °C 37.9 °F /  3.3 °C 30in /  1014.6hPa Calm     94% 0in /  0.0mm 0 W/m2
03:04 39.4 °F /  4.1 °C 37.8 °F /  3.2 °C 30in /  1014.9hPa Calm     94% 0in /  0.0mm 0 W/m2
03:09 39.2 °F /  4 °C 37.6 °F /  3.1 °C 30in /  1014.6hPa Calm     94% 0in /  0.0mm 0 W/m2
03:14 39.2 °F /  4 °C 37.6 °F /  3.1 °C 30in /  1014.6hPa Calm     94% 0in /  0.0mm 0 W/m2
03:19 39.2 °F /  4 °C 37.6 °F /  3.1 °C 30in /  1014.6hPa Calm     94% 0in /  0.0mm 0 W/m2
03:24 39.4 °F /  4.1 °C 38.1 °F /  3.4 °C 30in /  1014.6hPa Calm     95% 0in /  0.0mm 0 W/m2
03:29 39.6 °F /  4.2 °C 38.3 °F /  3.5 °C 30in /  1014.6hPa Calm     95% 0in /  0.0mm 0 W/m2
03:34 39.6 °F /  4.2 °C 38.3 °F /  3.5 °C 30in /  1014.6hPa Calm     95% 0in /  0.0mm 0 W/m2
03:54 39 °F /  3.9 °C 37.4 °F /  3 °C 30in /  1014.9hPa Calm     94% 0in /  0.0mm 0 W/m2
03:59 38.8 °F /  3.8 °C 37.6 °F /  3.1 °C 30in /  1014.9hPa Calm     95% 0in /  0.0mm 0 W/m2
04:04 38.8 °F /  3.8 °C 37.6 °F /  3.1 °C 30in /  1014.9hPa Calm     95% 0in /  0.0mm 0 W/m2
04:09 38.7 °F /  3.7 °C 37 °F /  2.8 °C 30in /  1014.9hPa Calm     94% 0in /  0.0mm 0 W/m2
04:14 38.7 °F /  3.7 °C 37 °F /  2.8 °C 30in /  1014.9hPa Calm     94% 0in /  0.0mm 0 W/m2
04:19 38.7 °F /  3.7 °C 37.4 °F /  3 °C 30in /  1014.6hPa Calm     95% 0in /  0.0mm 0 W/m2
04:24 38.5 °F /  3.6 °C 37.2 °F /  2.9 °C 30in /  1014.6hPa Calm     95% 0in /  0.0mm 0 W/m2
04:29 38.3 °F /  3.5 °C 37 °F /  2.8 °C 30in /  1014.6hPa Calm     95% 0in /  0.0mm 0 W/m2
04:34 38.5 °F /  3.6 °C 37.2 °F /  2.9 °C 30in /  1014.6hPa Calm     95% 0in /  0.0mm 0 W/m2
04:39 38.5 °F /  3.6 °C 37.2 °F /  2.9 °C 30in /  1014.6hPa Calm     95% 0in /  0.0mm 0 W/m2
04:44 38.7 °F /  3.7 °C 37.4 °F /  3 °C 30in /  1014.6hPa Calm     95% 0in /  0.0mm 0 W/m2
04:49 38.5 °F /  3.6 °C 37.2 °F /  2.9 °C 30in /  1014.6hPa Calm     95% 0in /  0.0mm 0 W/m2
04:54 38.3 °F /  3.5 °C 37 °F /  2.8 °C 30in /  1014.6hPa Calm     95% 0in /  0.0mm 0 W/m2
04:59 38.1 °F /  3.4 °C 36.9 °F /  2.7 °C 30in /  1014.9hPa Calm     95% 0in /  0.0mm 0 W/m2
05:04 37.9 °F /  3.3 °C 36.7 °F /  2.6 °C 30in /  1014.9hPa Calm     95% 0in /  0.0mm 0 W/m2
05:09 37.8 °F /  3.2 °C 36.5 °F /  2.5 °C 30in /  1014.9hPa Calm     95% 0in /  0.0mm 0 W/m2
05:14 37.8 °F /  3.2 °C 36.5 °F /  2.5 °C 30in /  1014.9hPa Calm     95% 0in /  0.0mm 0 W/m2
05:19 37.6 °F /  3.1 °C 36.3 °F /  2.4 °C 30in /  1014.9hPa Calm     95% 0in /  0.0mm 0 W/m2
05:24 37.6 °F /  3.1 °C 36.3 °F /  2.4 °C 30in /  1015.2hPa Calm     95% 0in /  0.0mm 0 W/m2
05:29 37.6 °F /  3.1 °C 36.3 °F /  2.4 °C 30in /  1014.9hPa Calm     95% 0in /  0.0mm 0 W/m2
05:34 37.4 °F /  3 °C 36.1 °F /  2.3 °C 30in /  1015.2hPa Calm     95% 0in /  0.0mm 0 W/m2
05:39 37.4 °F /  3 °C 36.1 °F /  2.3 °C 30in /  1015.2hPa Calm     95% 0in /  0.0mm 0 W/m2
05:57 37.4 °F /  3 °C 36.1 °F /  2.3 °C 30in /  1015.2hPa Calm     95% 0in /  0.0mm 0 W/m2
06:02 37.4 °F /  3 °C 36.1 °F /  2.3 °C 30in /  1015.2hPa Calm     95% 0in /  0.0mm 0 W/m2
06:07 37.2 °F /  2.9 °C 36 °F /  2.2 °C 30in /  1015.2hPa Calm     95% 0in /  0.0mm 0 W/m2
06:12 37.2 °F /  2.9 °C 36 °F /  2.2 °C 30in /  1015.2hPa Calm     95% 0in /  0.0mm 0 W/m2
06:17 37.2 °F /  2.9 °C 36 °F /  2.2 °C 30in /  1015.2hPa Calm     95% 0in /  0.0mm 0 W/m2
06:22 37 °F /  2.8 °C 35.8 °F /  2.1 °C 30in /  1015.2hPa Calm     95% 0in /  0.0mm 0 W/m2
06:27 37 °F /  2.8 °C 35.8 °F /  2.1 °C 30in /  1015.2hPa Calm     95% 0in /  0.0mm 0 W/m2
06:32 37 °F /  2.8 °C 35.8 °F /  2.1 °C 30in /  1015.2hPa Calm     95% 0in /  0.0mm 0 W/m2
06:37 36.9 °F /  2.7 °C 35.6 °F /  2 °C 30in /  1015.2hPa Calm     95% 0in /  0.0mm 0 W/m2
06:55 36.3 °F /  2.4 °C 35.1 °F /  1.7 °C 30in /  1015.2hPa Calm     95% 0in /  0.0mm 0 W/m2
07:00 36.3 °F /  2.4 °C 35.1 °F /  1.7 °C 30in /  1015.2hPa Calm     95% 0in /  0.0mm 0 W/m2
07:05 36.3 °F /  2.4 °C 35.1 °F /  1.7 °C 30in /  1015.2hPa Calm     95% 0in /  0.0mm 0 W/m2
07:10 36.1 °F /  2.3 °C 34.9 °F /  1.6 °C 30in /  1015.2hPa Calm     95% 0in /  0.0mm 0 W/m2
07:15 36.1 °F /  2.3 °C 34.9 °F /  1.6 °C 30in /  1015.2hPa Calm     95% 0in /  0.0mm 0 W/m2
07:20 36.1 °F /  2.3 °C 35.1 °F /  1.7 °C 30in /  1015.2hPa Calm     96% 0in /  0.0mm 0 W/m2
07:25 36.1 °F /  2.3 °C 35.1 °F /  1.7 °C 30in /  1015.2hPa Calm     96% 0in /  0.0mm 0 W/m2
07:30 36.3 °F /  2.4 °C 35.2 °F /  1.8 °C 30in /  1015.6hPa Calm     96% 0in /  0.0mm 0 W/m2
07:35 36.3 °F /  2.4 °C 35.2 °F /  1.8 °C 30in /  1015.6hPa Calm     96% 0in /  0.0mm 5 W/m2
07:40 36.3 °F /  2.4 °C 35.2 °F /  1.8 °C 30in /  1015.6hPa Calm     96% 0in /  0.0mm 5 W/m2
07:45 36.5 °F /  2.5 °C 35.4 °F /  1.9 °C 30in /  1015.6hPa Calm     96% 0in /  0.0mm 9 W/m2
07:50 36.7 °F /  2.6 °C 35.6 °F /  2 °C 30in /  1015.6hPa Calm     96% 0in /  0.0mm 11 W/m2
07:56 36.7 °F /  2.6 °C 35.6 °F /  2 °C 30in /  1015.6hPa Calm     96% 0in /  0.0mm 12 W/m2
08:01 36.7 °F /  2.6 °C 35.6 °F /  2 °C 30in /  1015.6hPa Calm     96% 0in /  0.0mm 16 W/m2
08:06 36.5 °F /  2.5 °C 35.4 °F /  1.9 °C 30in /  1015.6hPa Calm     96% 0in /  0.0mm 18 W/m2
08:11 36.7 °F /  2.6 °C 35.6 °F /  2 °C 30in /  1015.6hPa Calm     96% 0in /  0.0mm 18 W/m2
08:16 36.7 °F /  2.6 °C 35.6 °F /  2 °C 30in /  1015.6hPa Calm     96% 0in /  0.0mm 21 W/m2
08:21 36.7 °F /  2.6 °C 35.6 °F /  2 °C 30in /  1015.6hPa Calm     96% 0in /  0.0mm 21 W/m2
08:26 36.9 °F /  2.7 °C 35.8 °F /  2.1 °C 30in /  1015.6hPa Calm     96% 0in /  0.0mm 25 W/m2
08:31 37 °F /  2.8 °C 36 °F /  2.2 °C 30in /  1015.6hPa Calm     96% 0in /  0.0mm 26 W/m2
08:36 37.6 °F /  3.1 °C 36.5 °F /  2.5 °C 30in /  1015.6hPa Calm     96% 0in /  0.0mm 39 W/m2
08:41 37.9 °F /  3.3 °C 37.2 °F /  2.9 °C 30in /  1015.6hPa Calm     97% 0in /  0.0mm 77 W/m2
08:46 38.5 °F /  3.6 °C 37.8 °F /  3.2 °C 30in /  1015.9hPa Calm     97% 0in /  0.0mm 88 W/m2
08:51 38.8 °F /  3.8 °C 38.1 °F /  3.4 °C 30in /  1015.9hPa Calm     97% 0in /  0.0mm 105 W/m2
08:56 39.4 °F /  4.1 °C 38.7 °F /  3.7 °C 30in /  1015.9hPa Calm     97% 0in /  0.0mm 70 W/m2
09:01 39.6 °F /  4.2 °C 38.8 °F /  3.8 °C 30in /  1016.3hPa Calm     97% 0in /  0.0mm 62 W/m2
09:06 39.7 °F /  4.3 °C 39 °F /  3.9 °C 30in /  1015.9hPa Calm     97% 0in /  0.0mm 49 W/m2
09:11 39.9 °F /  4.4 °C 39.2 °F /  4 °C 30in /  1015.9hPa Calm     97% 0in /  0.0mm 42 W/m2
09:16 40.3 °F /  4.6 °C 39.6 °F /  4.2 °C 30in /  1015.9hPa Calm     97% 0in /  0.0mm 84 W/m2
09:21 40.6 °F /  4.8 °C 39.9 °F /  4.4 °C 30in /  1015.9hPa Calm     97% 0in /  0.0mm 125 W/m2
09:26 40.8 °F /  4.9 °C 40.1 °F /  4.5 °C 30in /  1015.9hPa Calm     97% 0in /  0.0mm 209 W/m2
09:31 41.4 °F /  5.2 °C 40.6 °F /  4.8 °C 30in /  1015.9hPa Calm     97% 0in /  0.0mm 225 W/m2
09:36 41.9 °F /  5.5 °C 41.2 °F /  5.1 °C 30in /  1015.9hPa Calm     97% 0in /  0.0mm 237 W/m2
09:41 42.6 °F /  5.9 °C 41.9 °F /  5.5 °C 30in /  1016.3hPa Calm     97% 0in /  0.0mm 250 W/m2
09:46 43.3 °F /  6.3 °C 42.6 °F /  5.9 °C 30in /  1015.9hPa ESE 0.9mph /  1.4km/h 1mph /  1.6km/h 97% 0in /  0.0mm 236 W/m2
09:51 44.2 °F /  6.8 °C 43.5 °F /  6.4 °C 30in /  1016.3hPa East 2mph /  3.2km/h 2mph /  3.2km/h 97% 0in /  0.0mm 274 W/m2
09:56 44.8 °F /  7.1 °C 44.1 °F /  6.7 °C 30in /  1016.3hPa East 0.9mph /  1.4km/h 2mph /  3.2km/h 97% 0in /  0.0mm 267 W/m2
10:01 45.7 °F /  7.6 °C 44.6 °F /  7 °C 30in /  1015.9hPa Calm   1mph /  1.6km/h 96% 0in /  0.0mm 285 W/m2
10:06 46.4 °F /  8 °C 44.4 °F /  6.9 °C 30in /  1016.3hPa ESE 2mph /  3.2km/h 2mph /  3.2km/h 93% 0in /  0.0mm 308 W/m2
10:11 47.3 °F /  8.5 °C 44.8 °F /  7.1 °C 30in /  1016.3hPa East 0.9mph /  1.4km/h 1mph /  1.6km/h 91% 0in /  0.0mm 316 W/m2
10:16 48 °F /  8.9 °C 45 °F /  7.2 °C 30in /  1016.3hPa East 0.9mph /  1.4km/h 1mph /  1.6km/h 89% 0in /  0.0mm 327 W/m2
10:21 48.9 °F /  9.4 °C 45 °F /  7.2 °C 30in /  1016.3hPa ENE 0.9mph /  1.4km/h 4mph /  6.4km/h 86% 0in /  0.0mm 341 W/m2
10:26 49.5 °F /  9.7 °C 44.6 °F /  7 °C 30in /  1016.3hPa ENE 2mph /  3.2km/h 3mph /  4.8km/h 83% 0in /  0.0mm 341 W/m2
10:46 50.4 °F /  10.2 °C 44.1 °F /  6.7 °C 30in /  1015.9hPa Calm   2mph /  3.2km/h 79% 0in /  0.0mm 146 W/m2
10:51 50.5 °F /  10.3 °C 44.2 °F /  6.8 °C 30in /  1015.9hPa NNE 0.9mph /  1.4km/h 3mph /  4.8km/h 79% 0in /  0.0mm 134 W/m2
10:56 51.1 °F /  10.6 °C 44.4 °F /  6.9 °C 30in /  1015.9hPa NE 0.9mph /  1.4km/h 2mph /  3.2km/h 78% 0in /  0.0mm 199 W/m2
11:01 51.4 °F /  10.8 °C 44.4 °F /  6.9 °C 30in /  1015.9hPa ENE 6mph /  9.7km/h 6mph /  9.7km/h 77% 0in /  0.0mm 325 W/m2
11:06 52.2 °F /  11.2 °C 44.4 °F /  6.9 °C 30in /  1015.9hPa ENE 0.9mph /  1.4km/h 4mph /  6.4km/h 75% 0in /  0.0mm 424 W/m2
11:11 52.9 °F /  11.6 °C 45.1 °F /  7.3 °C 30in /  1015.9hPa East 0.9mph /  1.4km/h 6mph /  9.7km/h 75% 0in /  0.0mm 417 W/m2
11:16 53.4 °F /  11.9 °C 45 °F /  7.2 °C 30in /  1015.6hPa Calm   2mph /  3.2km/h 73% 0in /  0.0mm 439 W/m2
11:21 54 °F /  12.2 °C 44.8 °F /  7.1 °C 30in /  1015.9hPa ENE 2mph /  3.2km/h 3mph /  4.8km/h 71% 0in /  0.0mm 316 W/m2
11:42 55.6 °F /  13.1 °C 45.1 °F /  7.3 °C 30in /  1015.6hPa Calm   2mph /  3.2km/h 68% 0in /  0.0mm 120 W/m2
11:47 56.1 °F /  13.4 °C 45 °F /  7.2 °C 30in /  1015.6hPa ENE 4mph /  6.4km/h 5mph /  8km/h 66% 0in /  0.0mm 221 W/m2
11:52 56.5 °F /  13.6 °C 44.8 °F /  7.1 °C 30in /  1015.6hPa East 2.9mph /  4.7km/h 3mph /  4.8km/h 65% 0in /  0.0mm 207 W/m2
11:57 56.8 °F /  13.8 °C 44.8 °F /  7.1 °C 30in /  1015.6hPa ENE 0.9mph /  1.4km/h 4mph /  6.4km/h 64% 0in /  0.0mm 420 W/m2
12:02 57 °F /  13.9 °C 45 °F /  7.2 °C 30in /  1015.6hPa ESE 0.9mph /  1.4km/h 6mph /  9.7km/h 64% 0in /  0.0mm 396 W/m2
12:07 57.6 °F /  14.2 °C 45.1 °F /  7.3 °C 30in /  1015.6hPa ENE 2mph /  3.2km/h 3mph /  4.8km/h 63% 0in /  0.0mm 318 W/m2
12:12 58.1 °F /  14.5 °C 45.1 °F /  7.3 °C 30in /  1015.2hPa East 4mph /  6.4km/h 5mph /  8km/h 62% 0in /  0.0mm 441 W/m2
12:17 58.5 °F /  14.7 °C 45.5 °F /  7.5 °C 30in /  1015.2hPa Calm   2mph /  3.2km/h 62% 0in /  0.0mm 473 W/m2
12:22 59 °F /  15 °C 45.1 °F /  7.3 °C 30in /  1015.2hPa East 4mph /  6.4km/h 4mph /  6.4km/h 60% 0in /  0.0mm 506 W/m2
12:27 59.7 °F /  15.4 °C 45 °F /  7.2 °C 30in /  1015.2hPa East 2.9mph /  4.7km/h 6mph /  9.7km/h 58% 0in /  0.0mm 508 W/m2
12:32 60.3 °F /  15.7 °C 45 °F /  7.2 °C 30in /  1015.2hPa East 2.9mph /  4.7km/h 6mph /  9.7km/h 57% 0in /  0.0mm 366 W/m2
12:37 60.6 °F /  15.9 °C 44.8 °F /  7.1 °C 30in /  1015.2hPa Calm   1mph /  1.6km/h 56% 0in /  0.0mm 236 W/m2
12:42 60.6 °F /  15.9 °C 44.8 °F /  7.1 °C 30in /  1015.2hPa NNW 0.9mph /  1.4km/h 2mph /  3.2km/h 56% 0in /  0.0mm 229 W/m2
12:47 61.2 °F /  16.2 °C 43.3 °F /  6.3 °C 30in /  1015.2hPa NNW 2.9mph /  4.7km/h 6mph /  9.7km/h 52% 0in /  0.0mm 281 W/m2
12:52 61.7 °F /  16.5 °C 42.3 °F /  5.7 °C 30in /  1014.9hPa NW 2mph /  3.2km/h 3mph /  4.8km/h 49% 0in /  0.0mm 251 W/m2
12:57 62.2 °F /  16.8 °C 42.3 °F /  5.7 °C 30in /  1014.9hPa NE 4mph /  6.4km/h 11mph /  17.7km/h 48% 0in /  0.0mm 325 W/m2
13:02 62.8 °F /  17.1 °C 40.5 °F /  4.7 °C 30in /  1014.9hPa NE 2.9mph /  4.7km/h 9mph /  14.5km/h 44% 0in /  0.0mm 327 W/m2
13:07 63 °F /  17.2 °C 40.1 °F /  4.5 °C 30in /  1014.6hPa NNW 4.9mph /  7.9km/h 11mph /  17.7km/h 43% 0in /  0.0mm 455 W/m2
13:12 63 °F /  17.2 °C 40.1 °F /  4.5 °C 30in /  1014.6hPa WNW 4mph /  6.4km/h 6mph /  9.7km/h 43% 0in /  0.0mm 346 W/m2
13:17 63.1 °F /  17.3 °C 39 °F /  3.9 °C 30in /  1014.6hPa NE 4.9mph /  7.9km/h 12mph /  19.3km/h 41% 0in /  0.0mm 294 W/m2
13:22 63.1 °F /  17.3 °C 39 °F /  3.9 °C 30in /  1014.6hPa WNW 4.9mph /  7.9km/h 9mph /  14.5km/h 41% 0in /  0.0mm 162 W/m2
13:27 63.3 °F /  17.4 °C 39.2 °F /  4 °C 30in /  1014.6hPa West 2.9mph /  4.7km/h 8mph /  12.9km/h 41% 0in /  0.0mm 111 W/m2
13:32 63.7 °F /  17.6 °C 38.8 °F /  3.8 °C 30in /  1014.6hPa North 4.9mph /  7.9km/h 7mph /  11.3km/h 40% 0in /  0.0mm 165 W/m2
13:37 63.9 °F /  17.7 °C 39 °F /  3.9 °C 30in /  1014.6hPa North 2mph /  3.2km/h 5mph /  8km/h 40% 0in /  0.0mm 121 W/m2
13:42 63.9 °F /  17.7 °C 39 °F /  3.9 °C 30in /  1014.2hPa NNW 0.9mph /  1.4km/h 5mph /  8km/h 40% 0in /  0.0mm 169 W/m2
13:47 64 °F /  17.8 °C 39.2 °F /  4 °C 30in /  1014.2hPa WNW 4.9mph /  7.9km/h 6mph /  9.7km/h 40% 0in /  0.0mm 128 W/m2
13:52 64.2 °F /  17.9 °C 38.1 °F /  3.4 °C 30in /  1014.6hPa NNW 2mph /  3.2km/h 9mph /  14.5km/h 38% 0in /  0.0mm 287 W/m2
13:57 64.6 °F /  18.1 °C 38.5 °F /  3.6 °C 30in /  1014.2hPa NE 0.9mph /  1.4km/h 9mph /  14.5km/h 38% 0in /  0.0mm 151 W/m2
14:02 64.9 °F /  18.3 °C 38.7 °F /  3.7 °C 30in /  1014.2hPa East 4mph /  6.4km/h 6mph /  9.7km/h 38% 0in /  0.0mm 63 W/m2
14:07 65.1 °F /  18.4 °C 38.8 °F /  3.8 °C 30in /  1014.2hPa NNW 0.9mph /  1.4km/h 4mph /  6.4km/h 38% 0in /  0.0mm 206 W/m2
14:12 65.5 °F /  18.6 °C 38.5 °F /  3.6 °C 29.9in /  1013.9hPa WSW 2mph /  3.2km/h 4mph /  6.4km/h 37% 0in /  0.0mm 151 W/m2
14:17 65.5 °F /  18.6 °C 38.5 °F /  3.6 °C 29.9in /  1013.9hPa SSE 2mph /  3.2km/h 4mph /  6.4km/h 37% 0in /  0.0mm 178 W/m2
14:22 65.7 °F /  18.7 °C 39.4 °F /  4.1 °C 30in /  1014.2hPa East 2mph /  3.2km/h 10mph /  16.1km/h 38% 0in /  0.0mm 272 W/m2
14:27 65.7 °F /  18.7 °C 39.4 °F /  4.1 °C 29.9in /  1013.9hPa WNW 0.9mph /  1.4km/h 7mph /  11.3km/h 38% 0in /  0.0mm 199 W/m2
14:32 65.7 °F /  18.7 °C 40.1 °F /  4.5 °C 30in /  1014.2hPa NE 2mph /  3.2km/h 10mph /  16.1km/h 39% 0in /  0.0mm 190 W/m2
14:37 65.7 °F /  18.7 °C 41.9 °F /  5.5 °C 29.9in /  1013.9hPa East 2.9mph /  4.7km/h 4mph /  6.4km/h 42% 0in /  0.0mm 116 W/m2
14:42 65.5 °F /  18.6 °C 41.7 °F /  5.4 °C 29.9in /  1013.9hPa East 8.1mph /  13km/h 8mph /  12.9km/h 42% 0in /  0.0mm 137 W/m2
14:47 65.1 °F /  18.4 °C 42.6 °F /  5.9 °C 29.9in /  1013.9hPa ENE 2mph /  3.2km/h 6mph /  9.7km/h 44% 0in /  0.0mm 132 W/m2
14:52 64.9 °F /  18.3 °C 41.9 °F /  5.5 °C 29.9in /  1013.9hPa ENE 6mph /  9.7km/h 8mph /  12.9km/h 43% 0in /  0.0mm 113 W/m2
14:57 64.9 °F /  18.3 °C 41.4 °F /  5.2 °C 29.9in /  1013.9hPa ENE 4.9mph /  7.9km/h 8mph /  12.9km/h 42% 0in /  0.0mm 69 W/m2
15:02 64.9 °F /  18.3 °C 41.4 °F /  5.2 °C 29.9in /  1013.9hPa SE 2.9mph /  4.7km/h 10mph /  16.1km/h 42% 0in /  0.0mm 76 W/m2
15:07 64.8 °F /  18.2 °C 41.7 °F /  5.4 °C 29.9in /  1013.9hPa ESE 2.9mph /  4.7km/h 10mph /  16.1km/h 43% 0in /  0.0mm 102 W/m2
15:12 64.6 °F /  18.1 °C 42.3 °F /  5.7 °C 29.9in /  1013.9hPa SE 2.9mph /  4.7km/h 9mph /  14.5km/h 44% 0in /  0.0mm 142 W/m2
15:17 64.6 °F /  18.1 °C 42.3 °F /  5.7 °C 29.9in /  1013.9hPa SE 2.9mph /  4.7km/h 10mph /  16.1km/h 44% 0in /  0.0mm 105 W/m2
15:22 64.2 °F /  17.9 °C 41.2 °F /  5.1 °C 29.9in /  1013.9hPa South 2.9mph /  4.7km/h 8mph /  12.9km/h 43% 0in /  0.0mm 74 W/m2
15:27 64 °F /  17.8 °C 41.2 °F /  5.1 °C 29.9in /  1013.9hPa East 2mph /  3.2km/h 7mph /  11.3km/h 43% 0in /  0.0mm 72 W/m2
15:32 63.9 °F /  17.7 °C 41.5 °F /  5.3 °C 29.9in /  1013.9hPa SE 4.9mph /  7.9km/h 8mph /  12.9km/h 44% 0in /  0.0mm 62 W/m2
15:37 63.7 °F /  17.6 °C 41.4 °F /  5.2 °C 29.9in /  1013.9hPa SSE 2.9mph /  4.7km/h 6mph /  9.7km/h 44% 0in /  0.0mm 88 W/m2
15:42 63.7 °F /  17.6 °C 41.4 °F /  5.2 °C 29.9in /  1013.9hPa SE 2.9mph /  4.7km/h 4mph /  6.4km/h 44% 0in /  0.0mm 72 W/m2
15:47 63.7 °F /  17.6 °C 41.4 °F /  5.2 °C 29.9in /  1013.9hPa ESE 6mph /  9.7km/h 8mph /  12.9km/h 44% 0in /  0.0mm 76 W/m2
15:52 63.7 °F /  17.6 °C 41.4 °F /  5.2 °C 29.9in /  1013.9hPa ESE 2mph /  3.2km/h 6mph /  9.7km/h 44% 0in /  0.0mm 84 W/m2
15:58 63.7 °F /  17.6 °C 40.8 °F /  4.9 °C 29.9in /  1013.9hPa ESE 4mph /  6.4km/h 8mph /  12.9km/h 43% 0in /  0.0mm 84 W/m2
16:03 63.7 °F /  17.6 °C 41.4 °F /  5.2 °C 29.9in /  1013.9hPa East 4.9mph /  7.9km/h 5mph /  8km/h 44% 0in /  0.0mm 72 W/m2
16:08 63.7 °F /  17.6 °C 42.4 °F /  5.8 °C 29.9in /  1013.9hPa ESE 2.9mph /  4.7km/h 3mph /  4.8km/h 46% 0in /  0.0mm 60 W/m2
16:13 63.1 °F /  17.3 °C 42.6 °F /  5.9 °C 29.9in /  1013.9hPa ESE 2.9mph /  4.7km/h 4mph /  6.4km/h 47% 0in /  0.0mm 83 W/m2
16:18 62.8 °F /  17.1 °C 41.7 °F /  5.4 °C 29.9in /  1013.9hPa ESE 8.1mph /  13km/h 9mph /  14.5km/h 46% 0in /  0.0mm 74 W/m2
16:23 62.4 °F /  16.9 °C 41.9 °F /  5.5 °C 29.9in /  1013.9hPa ENE 0.9mph /  1.4km/h 4mph /  6.4km/h 47% 0in /  0.0mm 151 W/m2
16:28 62.1 °F /  16.7 °C 42.6 °F /  5.9 °C 29.9in /  1013.9hPa ENE 4mph /  6.4km/h 7mph /  11.3km/h 49% 0in /  0.0mm 98 W/m2
16:33 62.2 °F /  16.8 °C 41.2 °F /  5.1 °C 29.9in /  1013.9hPa ESE 8.1mph /  13km/h 8mph /  12.9km/h 46% 0in /  0.0mm 32 W/m2
16:38 62.2 °F /  16.8 °C 41.2 °F /  5.1 °C 29.9in /  1013.9hPa ESE 4mph /  6.4km/h 4mph /  6.4km/h 46% 0in /  0.0mm 28 W/m2
16:43 62.2 °F /  16.8 °C 41.7 °F /  5.4 °C 29.9in /  1013.9hPa ESE 0.9mph /  1.4km/h 3mph /  4.8km/h 47% 0in /  0.0mm 25 W/m2
16:48 61.9 °F /  16.6 °C 42.4 °F /  5.8 °C 29.9in /  1013.9hPa Calm   1mph /  1.6km/h 49% 0in /  0.0mm 23 W/m2
16:53 61.2 °F /  16.2 °C 40.8 °F /  4.9 °C 29.9in /  1013.9hPa East 0.9mph /  1.4km/h 6mph /  9.7km/h 47% 0in /  0.0mm 23 W/m2
16:58 60.4 °F /  15.8 °C 40.6 °F /  4.8 °C 29.9in /  1013.9hPa East 0.9mph /  1.4km/h 6mph /  9.7km/h 48% 0in /  0.0mm 21 W/m2
17:03 60.3 °F /  15.7 °C 41.5 °F /  5.3 °C 29.9in /  1013.5hPa East 0.9mph /  1.4km/h 3mph /  4.8km/h 50% 0in /  0.0mm 21 W/m2
17:08 59.9 °F /  15.5 °C 40.6 °F /  4.8 °C 29.9in /  1013.5hPa Calm   6mph /  9.7km/h 49% 0in /  0.0mm 21 W/m2
17:13 59.5 °F /  15.3 °C 41.4 °F /  5.2 °C 29.9in /  1013.9hPa East 4mph /  6.4km/h 4mph /  6.4km/h 51% 0in /  0.0mm 19 W/m2
17:18 58.8 °F /  14.9 °C 40.3 °F /  4.6 °C 29.9in /  1013.5hPa ENE 2mph /  3.2km/h 4mph /  6.4km/h 50% 0in /  0.0mm 19 W/m2
17:23 58.8 °F /  14.9 °C 40.8 °F /  4.9 °C 29.9in /  1013.5hPa ENE 2mph /  3.2km/h 7mph /  11.3km/h 51% 0in /  0.0mm 18 W/m2
17:28 58.6 °F /  14.8 °C 42.1 °F /  5.6 °C 29.9in /  1013.5hPa ESE 0.9mph /  1.4km/h 1mph /  1.6km/h 54% 0in /  0.0mm 18 W/m2
17:33 57.7 °F /  14.3 °C 41.7 °F /  5.4 °C 29.9in /  1013.9hPa Calm   7mph /  11.3km/h 55% 0in /  0.0mm 16 W/m2
17:38 56.8 °F /  13.8 °C 41.7 °F /  5.4 °C 29.9in /  1013.5hPa Calm   1mph /  1.6km/h 57% 0in /  0.0mm 14 W/m2
17:43 56.1 °F /  13.4 °C 41.9 °F /  5.5 °C 29.9in /  1013.9hPa Calm   1mph /  1.6km/h 59% 0in /  0.0mm 12 W/m2
17:48 55.2 °F /  12.9 °C 41.5 °F /  5.3 °C 29.9in /  1013.9hPa Calm     60% 0in /  0.0mm 12 W/m2
17:53 54.7 °F /  12.6 °C 41.5 °F /  5.3 °C 29.9in /  1013.9hPa Calm   1mph /  1.6km/h 61% 0in /  0.0mm 11 W/m2
17:58 54 °F /  12.2 °C 41.2 °F /  5.1 °C 29.9in /  1013.9hPa Calm     62% 0in /  0.0mm 7 W/m2
18:03 53.4 °F /  11.9 °C 41.2 °F /  5.1 °C 29.9in /  1013.9hPa Calm     63% 0in /  0.0mm 5 W/m2
18:08 53.1 °F /  11.7 °C 41.2 °F /  5.1 °C 29.9in /  1013.9hPa Calm     64% 0in /  0.0mm 0 W/m2
18:13 52.7 °F /  11.5 °C 41.2 °F /  5.1 °C 29.9in /  1013.9hPa Calm   2mph /  3.2km/h 65% 0in /  0.0mm 0 W/m2
18:18 52.2 °F /  11.2 °C 40.8 °F /  4.9 °C 29.9in /  1013.9hPa Calm   1mph /  1.6km/h 65% 0in /  0.0mm 0 W/m2
18:23 51.8 °F /  11 °C 40.8 °F /  4.9 °C 29.9in /  1013.9hPa Calm   1mph /  1.6km/h 66% 0in /  0.0mm 0 W/m2
18:28 51.3 °F /  10.7 °C 40.6 °F /  4.8 °C 30in /  1014.2hPa Calm   1mph /  1.6km/h 67% 0in /  0.0mm 0 W/m2
18:33 50.7 °F /  10.4 °C 40.1 °F /  4.5 °C 30in /  1014.2hPa Calm   1mph /  1.6km/h 67% 0in /  0.0mm 0 W/m2
18:38 50.4 °F /  10.2 °C 40.3 °F /  4.6 °C 30in /  1014.2hPa Calm     68% 0in /  0.0mm 0 W/m2
18:43 49.8 °F /  9.9 °C 40.1 °F /  4.5 °C 30in /  1014.2hPa Calm   1mph /  1.6km/h 69% 0in /  0.0mm 0 W/m2
18:48 49.6 °F /  9.8 °C 39.9 °F /  4.4 °C 30in /  1014.2hPa Calm     69% 0in /  0.0mm 0 W/m2
18:53 49.5 °F /  9.7 °C 40.1 °F /  4.5 °C 30in /  1014.2hPa Calm   1mph /  1.6km/h 70% 0in /  0.0mm 0 W/m2
18:58 49.3 °F /  9.6 °C 40.3 °F /  4.6 °C 30in /  1014.2hPa Calm   1mph /  1.6km/h 71% 0in /  0.0mm 0 W/m2
19:03 48.9 °F /  9.4 °C 39.9 °F /  4.4 °C 30in /  1014.2hPa Calm   1mph /  1.6km/h 71% 0in /  0.0mm 0 W/m2
19:08 48.7 °F /  9.3 °C 40.1 °F /  4.5 °C 30in /  1014.2hPa Calm     72% 0in /  0.0mm 0 W/m2
19:13 48.6 °F /  9.2 °C 39.9 °F /  4.4 °C 30in /  1014.6hPa Calm   1mph /  1.6km/h 72% 0in /  0.0mm 0 W/m2
19:18 48.4 °F /  9.1 °C 39.7 °F /  4.3 °C 30in /  1014.2hPa Calm   1mph /  1.6km/h 72% 0in /  0.0mm 0 W/m2
19:23 48.4 °F /  9.1 °C 39.7 °F /  4.3 °C 30in /  1014.6hPa ESE 0.9mph /  1.4km/h 2mph /  3.2km/h 72% 0in /  0.0mm 0 W/m2
19:28 48 °F /  8.9 °C 39.4 °F /  4.1 °C 30in /  1014.2hPa Calm     72% 0in /  0.0mm 0 W/m2
19:33 48 °F /  8.9 °C 39.4 °F /  4.1 °C 30in /  1014.2hPa Calm   2mph /  3.2km/h 72% 0in /  0.0mm 0 W/m2
19:38 48 °F /  8.9 °C 39.4 °F /  4.1 °C 30in /  1014.2hPa Calm   2mph /  3.2km/h 72% 0in /  0.0mm 0 W/m2
19:43 47.8 °F /  8.8 °C 39.2 °F /  4 °C 30in /  1014.6hPa Calm     72% 0in /  0.0mm 0 W/m2
19:48 47.8 °F /  8.8 °C 39.2 °F /  4 °C 30in /  1014.6hPa ESE 0.9mph /  1.4km/h 2mph /  3.2km/h 72% 0in /  0.0mm 0 W/m2
19:53 47.7 °F /  8.7 °C 39 °F /  3.9 °C 30in /  1014.6hPa Calm   1mph /  1.6km/h 72% 0in /  0.0mm 0 W/m2
19:58 47.7 °F /  8.7 °C 39 °F /  3.9 °C 30in /  1014.2hPa Calm   2mph /  3.2km/h 72% 0in /  0.0mm 0 W/m2
20:03 47.5 °F /  8.6 °C 38.8 °F /  3.8 °C 30in /  1014.2hPa Calm   1mph /  1.6km/h 72% 0in /  0.0mm 0 W/m2
20:08 47.1 °F /  8.4 °C 38.5 °F /  3.6 °C 30in /  1014.6hPa Calm     72% 0in /  0.0mm 0 W/m2
20:13 46.9 °F /  8.3 °C 38.3 °F /  3.5 °C 30in /  1014.6hPa Calm     72% 0in /  0.0mm 0 W/m2
20:18 46.8 °F /  8.2 °C 38.5 °F /  3.6 °C 30in /  1014.6hPa Calm     73% 0in /  0.0mm 0 W/m2
20:23 46.4 °F /  8 °C 38.3 °F /  3.5 °C 30in /  1014.6hPa Calm     73% 0in /  0.0mm 0 W/m2
20:28 46.2 °F /  7.9 °C 38.5 °F /  3.6 °C 30in /  1014.2hPa Calm     74% 0in /  0.0mm 0 W/m2
20:33 46.2 °F /  7.9 °C 38.5 °F /  3.6 °C 30in /  1014.2hPa Calm     74% 0in /  0.0mm 0 W/m2
20:38 46.2 °F /  7.9 °C 38.5 °F /  3.6 °C 30in /  1014.2hPa ESE 0.9mph /  1.4km/h 2mph /  3.2km/h 74% 0in /  0.0mm 0 W/m2
20:43 46 °F /  7.8 °C 38.3 °F /  3.5 °C 30in /  1014.2hPa Calm   1mph /  1.6km/h 74% 0in /  0.0mm 0 W/m2
20:48 46 °F /  7.8 °C 38.3 °F /  3.5 °C 30in /  1014.2hPa Calm   1mph /  1.6km/h 74% 0in /  0.0mm 0 W/m2
20:53 45.9 °F /  7.7 °C 38.3 °F /  3.5 °C 30in /  1014.2hPa ESE 0.9mph /  1.4km/h 1mph /  1.6km/h 75% 0in /  0.0mm 0 W/m2
20:58 45.7 °F /  7.6 °C 38.3 °F /  3.5 °C 30in /  1014.6hPa Calm     75% 0in /  0.0mm 0 W/m2
21:03 45.3 °F /  7.4 °C 37.9 °F /  3.3 °C 30in /  1014.2hPa Calm     75% 0in /  0.0mm 0 W/m2
21:08 45.3 °F /  7.4 °C 38.1 °F /  3.4 °C 30in /  1014.6hPa Calm     76% 0in /  0.0mm 0 W/m2
21:13 45.1 °F /  7.3 °C 37.9 °F /  3.3 °C 30in /  1014.6hPa Calm     76% 0in /  0.0mm 0 W/m2
21:18 45 °F /  7.2 °C 37.9 °F /  3.3 °C 30in /  1014.6hPa Calm     76% 0in /  0.0mm 0 W/m2
21:23 44.8 °F /  7.1 °C 37.8 °F /  3.2 °C 30in /  1014.6hPa Calm     76% 0in /  0.0mm 0 W/m2
21:28 44.8 °F /  7.1 °C 37.8 °F /  3.2 °C 30in /  1014.6hPa Calm     76% 0in /  0.0mm 0 W/m2
21:33 44.6 °F /  7 °C 37.8 °F /  3.2 °C 30in /  1014.6hPa Calm     77% 0in /  0.0mm 0 W/m2
21:38 44.4 °F /  6.9 °C 37.6 °F /  3.1 °C 30in /  1014.6hPa Calm     77% 0in /  0.0mm 0 W/m2
21:43 44.4 °F /  6.9 °C 37.9 °F /  3.3 °C 30in /  1014.6hPa Calm     78% 0in /  0.0mm 0 W/m2
21:48 44.2 °F /  6.8 °C 37.8 °F /  3.2 °C 30in /  1014.6hPa Calm     78% 0in /  0.0mm 0 W/m2
21:53 44.1 °F /  6.7 °C 37.6 °F /  3.1 °C 30in /  1014.9hPa Calm     78% 0in /  0.0mm 0 W/m2
21:58 43.9 °F /  6.6 °C 37.4 °F /  3 °C 30in /  1014.9hPa Calm     78% 0in /  0.0mm 0 W/m2
22:03 43.9 °F /  6.6 °C 37.8 °F /  3.2 °C 30in /  1014.9hPa Calm     79% 0in /  0.0mm 0 W/m2
22:08 43.5 °F /  6.4 °C 37.4 °F /  3 °C 30in /  1014.9hPa Calm     79% 0in /  0.0mm 0 W/m2
22:13 43.5 °F /  6.4 °C 37.4 °F /  3 °C 30in /  1014.9hPa Calm     79% 0in /  0.0mm 0 W/m2
22:18 43.3 °F /  6.3 °C 37.6 °F /  3.1 °C 30in /  1014.9hPa Calm     80% 0in /  0.0mm 0 W/m2
22:23 43.2 °F /  6.2 °C 37.4 °F /  3 °C 30in /  1014.9hPa Calm     80% 0in /  0.0mm 0 W/m2
22:28 43.2 °F /  6.2 °C 37.8 °F /  3.2 °C 30in /  1014.9hPa Calm   2mph /  3.2km/h 81% 0in /  0.0mm 0 W/m2
22:33 43.2 °F /  6.2 °C 37.8 °F /  3.2 °C 30in /  1014.9hPa ESE 0.9mph /  1.4km/h 1mph /  1.6km/h 81% 0in /  0.0mm 0 W/m2
22:38 43.2 °F /  6.2 °C 37.8 °F /  3.2 °C 30in /  1015.2hPa Calm   2mph /  3.2km/h 81% 0in /  0.0mm 0 W/m2
22:58 43 °F /  6.1 °C 37.9 °F /  3.3 °C 30in /  1015.2hPa Calm   1mph /  1.6km/h 82% 0in /  0.0mm 0 W/m2
23:03 43 °F /  6.1 °C 37.6 °F /  3.1 °C 30in /  1015.2hPa Calm     81% 0in /  0.0mm 0 W/m2
23:08 43 °F /  6.1 °C 37.6 °F /  3.1 °C 30in /  1015.2hPa Calm     81% 0in /  0.0mm 0 W/m2
23:13 43 °F /  6.1 °C 37.6 °F /  3.1 °C 30in /  1015.2hPa Calm     81% 0in /  0.0mm 0 W/m2
23:18 42.6 °F /  5.9 °C 37.2 °F /  2.9 °C 30in /  1015.2hPa Calm     81% 0in /  0.0mm 0 W/m2
23:23 42.4 °F /  5.8 °C 37 °F /  2.8 °C 30in /  1015.2hPa Calm     81% 0in /  0.0mm 0 W/m2
23:28 42.3 °F /  5.7 °C 37.2 °F /  2.9 °C 30in /  1015.2hPa Calm     82% 0in /  0.0mm 0 W/m2
23:33 42.1 °F /  5.6 °C 37.2 °F /  2.9 °C 30in /  1015.2hPa Calm     83% 0in /  0.0mm 0 W/m2
23:38 41.7 °F /  5.4 °C 36.9 °F /  2.7 °C 30in /  1015.2hPa Calm     83% 0in /  0.0mm 0 W/m2
23:43 41.7 °F /  5.4 °C 37.2 °F /  2.9 °C 30in /  1015.6hPa Calm     84% 0in /  0.0mm 0 W/m2
23:48 41.5 °F /  5.3 °C 37 °F /  2.8 °C 30in /  1015.6hPa Calm     84% 0in /  0.0mm 0 W/m2
23:53 41.4 °F /  5.2 °C 36.9 °F /  2.7 °C 30in /  1015.6hPa Calm     84% 0in /  0.0mm 0 W/m2
23:58 41.2 °F /  5.1 °C 36.7 °F /  2.6 °C 30in /  1015.6hPa Calm     84% 0in /  0.0mm 0 W/m2
Juneau County Weather
Compliments of Weather Underground - 4 mb